sensor_id;sensor_type;location;lat;lon;timestamp;temperature;humidity
23723;DHT22;12042;52.136;5.584;2023-04-09T05:49:47;9.40;99.90
23723;DHT22;12042;52.136;5.584;2023-04-09T05:52:14;9.40;99.90
23723;DHT22;12042;52.136;5.584;2023-04-09T05:54:41;9.40;99.90
23723;DHT22;12042;52.136;5.584;2023-04-09T05:57:06;9.40;99.90
23723;DHT22;12042;52.136;5.584;2023-04-09T05:59:32;9.40;99.90
23723;DHT22;12042;52.136;5.584;2023-04-09T06:01:58;9.40;99.90
23723;DHT22;12042;52.136;5.584;2023-04-09T06:04:23;9.40;99.90
23723;DHT22;12042;52.136;5.584;2023-04-09T06:06:49;9.40;99.90
23723;DHT22;12042;52.136;5.584;2023-04-09T06:09:15;9.40;99.90
23723;DHT22;12042;52.136;5.584;2023-04-09T06:11:41;9.50;99.90
23723;DHT22;12042;52.136;5.584;2023-04-09T06:14:06;9.50;99.90
23723;DHT22;12042;52.136;5.584;2023-04-09T06:16:32;9.50;99.90
23723;DHT22;12042;52.136;5.584;2023-04-09T06:18:57;9.50;99.90
23723;DHT22;12042;52.136;5.584;2023-04-09T06:21:23;9.50;99.90
23723;DHT22;12042;52.136;5.584;2023-04-09T06:23:49;9.40;99.90
23723;DHT22;12042;52.136;5.584;2023-04-09T06:26:14;9.40;99.90
23723;DHT22;12042;52.136;5.584;2023-04-09T06:28:40;9.50;99.90
23723;DHT22;12042;52.136;5.584;2023-04-09T06:31:05;9.50;99.90
23723;DHT22;12042;52.136;5.584;2023-04-09T06:33:31;9.60;99.90
23723;DHT22;12042;52.136;5.584;2023-04-09T06:35:57;9.70;99.90
23723;DHT22;12042;52.136;5.584;2023-04-09T06:38:23;9.70;99.90
23723;DHT22;12042;52.136;5.584;2023-04-09T06:40:48;9.60;99.90
23723;DHT22;12042;52.136;5.584;2023-04-09T06:43:14;9.60;99.90
23723;DHT22;12042;52.136;5.584;2023-04-09T06:45:41;9.60;99.90
23723;DHT22;12042;52.136;5.584;2023-04-09T06:48:07;9.50;99.90
23723;DHT22;12042;52.136;5.584;2023-04-09T06:50:32;9.50;99.90
23723;DHT22;12042;52.136;5.584;2023-04-09T06:52:58;9.40;99.90
23723;DHT22;12042;52.136;5.584;2023-04-09T06:55:24;9.40;99.90
23723;DHT22;12042;52.136;5.584;2023-04-09T06:57:51;9.40;99.90
23723;DHT22;12042;52.136;5.584;2023-04-09T07:00:16;9.40;99.90
23723;DHT22;12042;52.136;5.584;2023-04-09T07:02:42;9.40;99.90
23723;DHT22;12042;52.136;5.584;2023-04-09T07:05:08;9.40;99.90
23723;DHT22;12042;52.136;5.584;2023-04-09T07:07:33;9.40;99.90
23723;DHT22;12042;52.136;5.584;2023-04-09T07:09:59;9.40;99.90
23723;DHT22;12042;52.136;5.584;2023-04-09T07:12:30;9.40;99.90
23723;DHT22;12042;52.136;5.584;2023-04-09T07:14:57;9.40;99.90
23723;DHT22;12042;52.136;5.584;2023-04-09T07:17:23;9.50;99.90
23723;DHT22;12042;52.136;5.584;2023-04-09T07:19:49;9.50;99.90
23723;DHT22;12042;52.136;5.584;2023-04-09T07:22:22;9.50;99.90
23723;DHT22;12042;52.136;5.584;2023-04-09T07:24:48;9.60;99.90
23723;DHT22;12042;52.136;5.584;2023-04-09T07:27:21;9.70;99.90
23723;DHT22;12042;52.136;5.584;2023-04-09T07:29:47;9.90;99.90
23723;DHT22;12042;52.136;5.584;2023-04-09T07:32:13;9.90;99.90
23723;DHT22;12042;52.136;5.584;2023-04-09T07:34:40;9.90;99.90
23723;DHT22;12042;52.136;5.584;2023-04-09T07:37:07;10.00;99.90
23723;DHT22;12042;52.136;5.584;2023-04-09T07:39:32;10.10;99.90
23723;DHT22;12042;52.136;5.584;2023-04-09T07:42:01;10.20;99.90
23723;DHT22;12042;52.136;5.584;2023-04-09T07:44:27;10.30;99.90
23723;DHT22;12042;52.136;5.584;2023-04-09T07:46:53;10.40;99.90
23723;DHT22;12042;52.136;5.584;2023-04-09T07:49:19;10.40;99.90
23723;DHT22;12042;52.136;5.584;2023-04-09T07:51:45;10.40;99.90
23723;DHT22;12042;52.136;5.584;2023-04-09T07:54:11;10.30;99.90
23723;DHT22;12042;52.136;5.584;2023-04-09T07:56:37;10.40;99.90
23723;DHT22;12042;52.136;5.584;2023-04-09T07:59:03;10.40;99.90
23723;DHT22;12042;52.136;5.584;2023-04-09T08:01:29;10.40;99.90
23723;DHT22;12042;52.136;5.584;2023-04-09T08:03:54;10.60;99.90
23723;DHT22;12042;52.136;5.584;2023-04-09T08:06:20;10.80;99.90
23723;DHT22;12042;52.136;5.584;2023-04-09T08:08:45;10.90;99.90
23723;DHT22;12042;52.136;5.584;2023-04-09T08:11:11;11.00;99.90
23723;DHT22;12042;52.136;5.584;2023-04-09T08:13:36;11.00;99.90
23723;DHT22;12042;52.136;5.584;2023-04-09T08:16:02;11.20;99.90
23723;DHT22;12042;52.136;5.584;2023-04-09T08:18:28;11.20;99.90
23723;DHT22;12042;52.136;5.584;2023-04-09T08:20:54;11.20;99.90
23723;DHT22;12042;52.136;5.584;2023-04-09T08:23:20;11.30;99.90
23723;DHT22;12042;52.136;5.584;2023-04-09T08:25:46;11.50;99.90
23723;DHT22;12042;52.136;5.584;2023-04-09T08:28:11;11.80;99.90
23723;DHT22;12042;52.136;5.584;2023-04-09T08:30:37;12.00;99.90
23723;DHT22;12042;52.136;5.584;2023-04-09T08:33:03;11.90;99.90
23723;DHT22;12042;52.136;5.584;2023-04-09T08:35:32;12.00;99.90
23723;DHT22;12042;52.136;5.584;2023-04-09T08:37:58;12.00;99.90
23723;DHT22;12042;52.136;5.584;2023-04-09T08:40:24;12.30;99.90
23723;DHT22;12042;52.136;5.584;2023-04-09T08:42:54;12.60;99.90
23723;DHT22;12042;52.136;5.584;2023-04-09T08:45:21;12.40;99.90
23723;DHT22;12042;52.136;5.584;2023-04-09T08:47:48;12.20;99.90
23723;DHT22;12042;52.136;5.584;2023-04-09T08:50:14;12.20;99.90
23723;DHT22;12042;52.136;5.584;2023-04-09T08:52:40;12.30;99.90
23723;DHT22;12042;52.136;5.584;2023-04-09T08:55:07;12.40;99.90
23723;DHT22;12042;52.136;5.584;2023-04-09T08:57:37;12.50;99.90
23723;DHT22;12042;52.136;5.584;2023-04-09T09:00:03;12.60;99.90
23723;DHT22;12042;52.136;5.584;2023-04-09T09:02:29;12.60;99.90
23723;DHT22;12042;52.136;5.584;2023-04-09T09:04:55;12.70;99.90
23723;DHT22;12042;52.136;5.584;2023-04-09T09:07:26;12.80;99.90
23723;DHT22;12042;52.136;5.584;2023-04-09T09:10:00;12.70;99.90
23723;DHT22;12042;52.136;5.584;2023-04-09T09:12:40;12.80;99.90
23723;DHT22;12042;52.136;5.584;2023-04-09T09:15:27;12.90;99.90
23723;DHT22;12042;52.136;5.584;2023-04-09T09:17:55;13.40;99.90
23723;DHT22;12042;52.136;5.584;2023-04-09T09:20:21;13.90;99.90
23723;DHT22;12042;52.136;5.584;2023-04-09T09:22:53;13.80;99.90
23723;DHT22;12042;52.136;5.584;2023-04-09T09:25:19;13.50;99.90
23723;DHT22;12042;52.136;5.584;2023-04-09T09:27:49;13.30;99.90
23723;DHT22;12042;52.136;5.584;2023-04-09T09:30:25;13.30;99.90
23723;DHT22;12042;52.136;5.584;2023-04-09T09:32:52;13.10;99.90
23723;DHT22;12042;52.136;5.584;2023-04-09T09:35:18;13.30;99.90
23723;DHT22;12042;52.136;5.584;2023-04-09T09:37:44;13.50;99.90
23723;DHT22;12042;52.136;5.584;2023-04-09T09:40:10;13.50;99.90
23723;DHT22;12042;52.136;5.584;2023-04-09T09:42:36;13.50;99.90
23723;DHT22;12042;52.136;5.584;2023-04-09T09:45:17;13.60;99.90
23723;DHT22;12042;52.136;5.584;2023-04-09T09:47:43;13.70;99.90
23723;DHT22;12042;52.136;5.584;2023-04-09T09:50:09;13.90;99.90
23723;DHT22;12042;52.136;5.584;2023-04-09T09:52:37;14.10;99.90
23723;DHT22;12042;52.136;5.584;2023-04-09T09:55:05;14.20;99.90
23723;DHT22;12042;52.136;5.584;2023-04-09T09:57:32;14.30;99.90
23723;DHT22;12042;52.136;5.584;2023-04-09T10:00:03;14.40;99.90
23723;DHT22;12042;52.136;5.584;2023-04-09T10:05:15;14.90;99.90
23723;DHT22;12042;52.136;5.584;2023-04-09T10:07:41;14.80;99.90
23723;DHT22;12042;52.136;5.584;2023-04-09T10:10:08;14.60;99.90
23723;DHT22;12042;52.136;5.584;2023-04-09T10:12:34;14.50;99.90
23723;DHT22;12042;52.136;5.584;2023-04-09T10:15:00;14.50;99.90
23723;DHT22;12042;52.136;5.584;2023-04-09T10:17:30;14.50;99.90
23723;DHT22;12042;52.136;5.584;2023-04-09T10:20:17;14.50;99.90
23723;DHT22;12042;52.136;5.584;2023-04-09T10:22:47;14.50;99.90
23723;DHT22;12042;52.136;5.584;2023-04-09T10:25:14;14.70;99.90
23723;DHT22;12042;52.136;5.584;2023-04-09T10:27:41;14.90;99.90
23723;DHT22;12042;52.136;5.584;2023-04-09T10:30:33;15.00;99.90
23723;DHT22;12042;52.136;5.584;2023-04-09T10:33:15;14.90;99.90
23723;DHT22;12042;52.136;5.584;2023-04-09T10:35:45;15.10;99.90
23723;DHT22;12042;52.136;5.584;2023-04-09T10:38:13;15.70;99.90
23723;DHT22;12042;52.136;5.584;2023-04-09T10:40:40;15.70;99.90
23723;DHT22;12042;52.136;5.584;2023-04-09T10:43:08;15.70;99.90
23723;DHT22;12042;52.136;5.584;2023-04-09T10:45:41;15.60;99.90
23723;DHT22;12042;52.136;5.584;2023-04-09T10:48:13;15.20;99.90
23723;DHT22;12042;52.136;5.584;2023-04-09T10:50:42;14.80;99.90
23723;DHT22;12042;52.136;5.584;2023-04-09T10:53:20;15.10;99.90
23723;DHT22;12042;52.136;5.584;2023-04-09T10:55:49;15.30;99.90
23723;DHT22;12042;52.136;5.584;2023-04-09T10:58:15;15.20;99.90
23723;DHT22;12042;52.136;5.584;2023-04-09T11:00:43;15.30;99.90
23723;DHT22;12042;52.136;5.584;2023-04-09T11:03:18;15.60;99.90
23723;DHT22;12042;52.136;5.584;2023-04-09T11:06:07;15.70;99.90
23723;DHT22;12042;52.136;5.584;2023-04-09T11:08:36;15.70;99.90
23723;DHT22;12042;52.136;5.584;2023-04-09T11:11:03;15.80;99.90
23723;DHT22;12042;52.136;5.584;2023-04-09T11:13:30;15.80;99.90
23723;DHT22;12042;52.136;5.584;2023-04-09T11:15:56;15.30;99.90
23723;DHT22;12042;52.136;5.584;2023-04-09T11:18:27;15.00;99.90
23723;DHT22;12042;52.136;5.584;2023-04-09T11:20:57;14.90;99.90
23723;DHT22;12042;52.136;5.584;2023-04-09T11:23:24;15.10;99.90
23723;DHT22;12042;52.136;5.584;2023-04-09T11:25:51;15.10;99.90
23723;DHT22;12042;52.136;5.584;2023-04-09T11:28:19;14.90;99.90
23723;DHT22;12042;52.136;5.584;2023-04-09T11:30:45;14.90;99.90
23723;DHT22;12042;52.136;5.584;2023-04-09T11:33:13;14.90;99.90
23723;DHT22;12042;52.136;5.584;2023-04-09T11:35:39;14.70;99.90
23723;DHT22;12042;52.136;5.584;2023-04-09T11:38:10;14.90;99.90
23723;DHT22;12042;52.136;5.584;2023-04-09T11:40:45;15.00;99.90
23723;DHT22;12042;52.136;5.584;2023-04-09T11:43:17;15.60;99.90
23723;DHT22;12042;52.136;5.584;2023-04-09T11:45:47;15.90;99.90
23723;DHT22;12042;52.136;5.584;2023-04-09T11:48:13;15.80;99.90
23723;DHT22;12042;52.136;5.584;2023-04-09T11:50:41;15.70;99.90
23723;DHT22;12042;52.136;5.584;2023-04-09T11:53:19;15.80;99.90
23723;DHT22;12042;52.136;5.584;2023-04-09T11:55:49;16.20;99.90
23723;DHT22;12042;52.136;5.584;2023-04-09T11:58:16;16.50;99.90
23723;DHT22;12042;52.136;5.584;2023-04-09T12:01:07;16.10;99.90
23723;DHT22;12042;52.136;5.584;2023-04-09T12:03:54;15.80;99.90
23723;DHT22;12042;52.136;5.584;2023-04-09T12:06:26;16.10;99.90
23723;DHT22;12042;52.136;5.584;2023-04-09T12:08:58;16.60;99.90
23723;DHT22;12042;52.136;5.584;2023-04-09T12:11:28;16.80;99.90
23723;DHT22;12042;52.136;5.584;2023-04-09T12:14:03;16.30;99.90
23723;DHT22;12042;52.136;5.584;2023-04-09T12:16:31;15.90;99.90
23723;DHT22;12042;52.136;5.584;2023-04-09T12:19:07;15.90;99.90
23723;DHT22;12042;52.136;5.584;2023-04-09T12:21:53;15.70;99.90
23723;DHT22;12042;52.136;5.584;2023-04-09T12:24:22;15.50;99.90
23723;DHT22;12042;52.136;5.584;2023-04-09T12:26:51;15.80;99.90
23723;DHT22;12042;52.136;5.584;2023-04-09T12:29:18;15.90;99.90
23723;DHT22;12042;52.136;5.584;2023-04-09T12:31:44;15.90;99.90
23723;DHT22;12042;52.136;5.584;2023-04-09T12:34:10;15.90;99.90
23723;DHT22;12042;52.136;5.584;2023-04-09T12:36:44;16.10;99.90
23723;DHT22;12042;52.136;5.584;2023-04-09T12:39:12;16.00;99.90
23723;DHT22;12042;52.136;5.584;2023-04-09T12:41:38;15.90;99.90
23723;DHT22;12042;52.136;5.584;2023-04-09T12:44:03;15.70;99.90
23723;DHT22;12042;52.136;5.584;2023-04-09T12:46:29;15.50;99.90
23723;DHT22;12042;52.136;5.584;2023-04-09T12:48:59;15.60;99.90
23723;DHT22;12042;52.136;5.584;2023-04-09T12:51:25;15.90;99.90
23723;DHT22;12042;52.136;5.584;2023-04-09T12:53:50;16.10;99.90
23723;DHT22;12042;52.136;5.584;2023-04-09T12:56:16;16.40;99.90
23723;DHT22;12042;52.136;5.584;2023-04-09T12:58:41;16.70;99.90
23723;DHT22;12042;52.136;5.584;2023-04-09T13:01:07;16.90;99.90
23723;DHT22;12042;52.136;5.584;2023-04-09T13:03:32;16.90;99.90
23723;DHT22;12042;52.136;5.584;2023-04-09T13:05:58;17.00;99.90
23723;DHT22;12042;52.136;5.584;2023-04-09T13:08:24;16.80;99.90
23723;DHT22;12042;52.136;5.584;2023-04-09T13:10:49;16.60;99.90
23723;DHT22;12042;52.136;5.584;2023-04-09T13:13:15;16.50;99.90
23723;DHT22;12042;52.136;5.584;2023-04-09T13:15:41;16.70;99.90
23723;DHT22;12042;52.136;5.584;2023-04-09T13:18:11;17.10;99.90
23723;DHT22;12042;52.136;5.584;2023-04-09T13:20:37;17.30;99.90
23723;DHT22;12042;52.136;5.584;2023-04-09T13:23:03;17.40;99.90
23723;DHT22;12042;52.136;5.584;2023-04-09T13:25:28;17.20;99.90
23723;DHT22;12042;52.136;5.584;2023-04-09T13:27:54;16.80;99.90
23723;DHT22;12042;52.136;5.584;2023-04-09T13:30:22;16.80;99.90
23723;DHT22;12042;52.136;5.584;2023-04-09T13:32:48;16.80;99.90
23723;DHT22;12042;52.136;5.584;2023-04-09T13:35:14;16.90;99.90
23723;DHT22;12042;52.136;5.584;2023-04-09T13:37:39;16.80;99.90
23723;DHT22;12042;52.136;5.584;2023-04-09T13:40:06;16.60;99.90
23723;DHT22;12042;52.136;5.584;2023-04-09T13:42:33;16.90;99.90
23723;DHT22;12042;52.136;5.584;2023-04-09T13:44:58;17.00;99.90
23723;DHT22;12042;52.136;5.584;2023-04-09T13:47:24;17.10;99.90
23723;DHT22;12042;52.136;5.584;2023-04-09T13:49:50;17.20;99.90
23723;DHT22;12042;52.136;5.584;2023-04-09T13:52:18;17.10;99.90
23723;DHT22;12042;52.136;5.584;2023-04-09T13:55:16;16.90;99.90
23723;DHT22;12042;52.136;5.584;2023-04-09T13:57:42;17.10;99.90
23723;DHT22;12042;52.136;5.584;2023-04-09T14:00:16;17.50;99.90
23723;DHT22;12042;52.136;5.584;2023-04-09T14:02:41;17.60;99.90
23723;DHT22;12042;52.136;5.584;2023-04-09T14:05:07;17.80;99.90
23723;DHT22;12042;52.136;5.584;2023-04-09T14:07:37;17.50;99.90
23723;DHT22;12042;52.136;5.584;2023-04-09T14:10:03;17.40;99.90
23723;DHT22;12042;52.136;5.584;2023-04-09T14:12:48;17.30;99.90
23723;DHT22;12042;52.136;5.584;2023-04-09T14:15:14;17.10;99.90
23723;DHT22;12042;52.136;5.584;2023-04-09T14:17:42;16.90;99.90
23723;DHT22;12042;52.136;5.584;2023-04-09T14:20:15;17.00;99.90
23723;DHT22;12042;52.136;5.584;2023-04-09T14:22:46;17.30;99.90
23723;DHT22;12042;52.136;5.584;2023-04-09T14:25:17;17.50;99.90
23723;DHT22;12042;52.136;5.584;2023-04-09T14:27:42;17.50;99.90
23723;DHT22;12042;52.136;5.584;2023-04-09T14:30:09;17.10;99.90
23723;DHT22;12042;52.136;5.584;2023-04-09T14:32:55;17.40;99.90
23723;DHT22;12042;52.136;5.584;2023-04-09T14:35:20;17.70;99.90
23723;DHT22;12042;52.136;5.584;2023-04-09T14:37:46;17.70;99.90
23723;DHT22;12042;52.136;5.584;2023-04-09T14:40:12;17.50;99.90
23723;DHT22;12042;52.136;5.584;2023-04-09T14:42:38;17.20;99.90
23723;DHT22;12042;52.136;5.584;2023-04-09T14:45:04;16.80;99.90
23723;DHT22;12042;52.136;5.584;2023-04-09T14:47:30;16.50;99.90
23723;DHT22;12042;52.136;5.584;2023-04-09T14:49:55;16.40;99.90
23723;DHT22;12042;52.136;5.584;2023-04-09T14:52:21;16.50;99.90
23723;DHT22;12042;52.136;5.584;2023-04-09T14:54:46;16.60;99.90
23723;DHT22;12042;52.136;5.584;2023-04-09T14:57:12;16.60;99.90
23723;DHT22;12042;52.136;5.584;2023-04-09T14:59:37;16.50;99.90
23723;DHT22;12042;52.136;5.584;2023-04-09T15:02:03;16.20;99.90
23723;DHT22;12042;52.136;5.584;2023-04-09T15:04:28;16.00;99.90
23723;DHT22;12042;52.136;5.584;2023-04-09T15:06:54;16.00;99.90
23723;DHT22;12042;52.136;5.584;2023-04-09T15:09:19;16.10;99.90
23723;DHT22;12042;52.136;5.584;2023-04-09T15:11:45;16.10;99.90
23723;DHT22;12042;52.136;5.584;2023-04-09T15:14:11;16.20;99.90
23723;DHT22;12042;52.136;5.584;2023-04-09T15:16:36;16.50;99.90
23723;DHT22;12042;52.136;5.584;2023-04-09T15:19:02;16.60;99.90
23723;DHT22;12042;52.136;5.584;2023-04-09T15:21:28;16.60;99.90
23723;DHT22;12042;52.136;5.584;2023-04-09T15:23:54;16.60;99.90
23723;DHT22;12042;52.136;5.584;2023-04-09T15:26:22;16.60;99.90
23723;DHT22;12042;52.136;5.584;2023-04-09T15:28:47;16.70;99.90
23723;DHT22;12042;52.136;5.584;2023-04-09T15:31:13;16.60;99.90
23723;DHT22;12042;52.136;5.584;2023-04-09T15:33:41;16.50;99.90
23723;DHT22;12042;52.136;5.584;2023-04-09T15:36:07;16.30;99.90
23723;DHT22;12042;52.136;5.584;2023-04-09T15:38:33;16.00;99.90
23723;DHT22;12042;52.136;5.584;2023-04-09T15:40:58;15.90;99.90
23723;DHT22;12042;52.136;5.584;2023-04-09T15:43:24;16.10;99.90
23723;DHT22;12042;52.136;5.584;2023-04-09T15:45:51;16.30;99.90
23723;DHT22;12042;52.136;5.584;2023-04-09T15:48:17;16.50;99.90
23723;DHT22;12042;52.136;5.584;2023-04-09T15:50:44;16.60;99.90
23723;DHT22;12042;52.136;5.584;2023-04-09T15:53:10;16.60;99.90
23723;DHT22;12042;52.136;5.584;2023-04-09T15:55:35;16.80;99.90
23723;DHT22;12042;52.136;5.584;2023-04-09T15:58:01;16.90;99.90
23723;DHT22;12042;52.136;5.584;2023-04-09T16:00:26;16.70;99.90
23723;DHT22;12042;52.136;5.584;2023-04-09T16:02:52;16.70;99.90
23723;DHT22;12042;52.136;5.584;2023-04-09T16:05:18;16.70;99.90
23723;DHT22;12042;52.136;5.584;2023-04-09T16:07:44;16.60;99.90
23723;DHT22;12042;52.136;5.584;2023-04-09T16:10:09;16.50;99.90
23723;DHT22;12042;52.136;5.584;2023-04-09T16:12:35;16.50;99.90
23723;DHT22;12042;52.136;5.584;2023-04-09T16:15:01;16.50;99.90
23723;DHT22;12042;52.136;5.584;2023-04-09T16:17:26;16.50;99.90
23723;DHT22;12042;52.136;5.584;2023-04-09T16:19:52;16.50;99.90
23723;DHT22;12042;52.136;5.584;2023-04-09T16:22:18;16.60;99.90
23723;DHT22;12042;52.136;5.584;2023-04-09T16:24:43;16.40;99.90
23723;DHT22;12042;52.136;5.584;2023-04-09T16:27:09;16.40;99.90
23723;DHT22;12042;52.136;5.584;2023-04-09T16:29:35;16.50;99.90
23723;DHT22;12042;52.136;5.584;2023-04-09T16:32:00;16.50;99.90
23723;DHT22;12042;52.136;5.584;2023-04-09T16:34:28;16.40;99.90
23723;DHT22;12042;52.136;5.584;2023-04-09T16:36:55;16.60;99.90
23723;DHT22;12042;52.136;5.584;2023-04-09T16:39:21;16.80;99.90
23723;DHT22;12042;52.136;5.584;2023-04-09T16:41:46;16.90;99.90
23723;DHT22;12042;52.136;5.584;2023-04-09T16:44:13;16.90;99.90
23723;DHT22;12042;52.136;5.584;2023-04-09T16:46:39;16.80;99.90
23723;DHT22;12042;52.136;5.584;2023-04-09T16:49:05;16.60;99.90
23723;DHT22;12042;52.136;5.584;2023-04-09T16:51:30;16.30;99.90
23723;DHT22;12042;52.136;5.584;2023-04-09T16:53:56;16.20;99.90
23723;DHT22;12042;52.136;5.584;2023-04-09T16:56:21;16.10;99.90
23723;DHT22;12042;52.136;5.584;2023-04-09T16:58:47;16.20;99.90
23723;DHT22;12042;52.136;5.584;2023-04-09T17:01:13;16.10;99.90
23723;DHT22;12042;52.136;5.584;2023-04-09T17:03:38;16.10;99.90
23723;DHT22;12042;52.136;5.584;2023-04-09T17:06:05;15.80;99.90
23723;DHT22;12042;52.136;5.584;2023-04-09T17:08:31;15.60;99.90
23723;DHT22;12042;52.136;5.584;2023-04-09T17:10:57;15.50;99.90
23723;DHT22;12042;52.136;5.584;2023-04-09T17:13:30;15.40;99.90
23723;DHT22;12042;52.136;5.584;2023-04-09T17:15:56;15.20;99.90
23723;DHT22;12042;52.136;5.584;2023-04-09T17:18:22;15.30;99.90
23723;DHT22;12042;52.136;5.584;2023-04-09T17:20:48;15.40;99.90
23723;DHT22;12042;52.136;5.584;2023-04-09T17:23:14;15.50;99.90
23723;DHT22;12042;52.136;5.584;2023-04-09T17:25:40;15.40;99.90
23723;DHT22;12042;52.136;5.584;2023-04-09T17:28:06;15.40;99.90
23723;DHT22;12042;52.136;5.584;2023-04-09T17:30:32;15.30;99.90
23723;DHT22;12042;52.136;5.584;2023-04-09T17:32:58;15.20;99.90
23723;DHT22;12042;52.136;5.584;2023-04-09T17:35:23;15.10;99.90
23723;DHT22;12042;52.136;5.584;2023-04-09T17:37:49;15.10;99.90
23723;DHT22;12042;52.136;5.584;2023-04-09T17:40:15;15.20;99.90
23723;DHT22;12042;52.136;5.584;2023-04-09T17:42:43;15.20;99.90
23723;DHT22;12042;52.136;5.584;2023-04-09T17:45:09;15.20;99.90
23723;DHT22;12042;52.136;5.584;2023-04-09T17:47:35;15.10;99.90
23723;DHT22;12042;52.136;5.584;2023-04-09T17:50:01;15.00;99.90
23723;DHT22;12042;52.136;5.584;2023-04-09T17:52:27;15.00;99.90
23723;DHT22;12042;52.136;5.584;2023-04-09T17:54:53;14.90;99.90
23723;DHT22;12042;52.136;5.584;2023-04-09T17:57:19;15.00;99.90
23723;DHT22;12042;52.136;5.584;2023-04-09T17:59:45;14.90;99.90
23723;DHT22;12042;52.136;5.584;2023-04-09T18:02:10;14.90;99.90
23723;DHT22;12042;52.136;5.584;2023-04-09T18:04:36;14.90;99.90
23723;DHT22;12042;52.136;5.584;2023-04-09T18:07:02;14.90;99.90
23723;DHT22;12042;52.136;5.584;2023-04-09T18:09:28;14.80;99.90
23723;DHT22;12042;52.136;5.584;2023-04-09T18:11:54;14.80;99.90
23723;DHT22;12042;52.136;5.584;2023-04-09T18:14:21;14.70;99.90
23723;DHT22;12042;52.136;5.584;2023-04-09T18:16:47;14.70;99.90
23723;DHT22;12042;52.136;5.584;2023-04-09T18:19:13;14.70;99.90
23723;DHT22;12042;52.136;5.584;2023-04-09T18:21:38;14.60;99.90
23723;DHT22;12042;52.136;5.584;2023-04-09T18:24:04;14.60;99.90
23723;DHT22;12042;52.136;5.584;2023-04-09T18:26:30;14.50;99.90
23723;DHT22;12042;52.136;5.584;2023-04-09T18:28:57;14.40;99.90
23723;DHT22;12042;52.136;5.584;2023-04-09T18:31:23;14.50;99.90
23723;DHT22;12042;52.136;5.584;2023-04-09T18:33:48;14.50;99.90
23723;DHT22;12042;52.136;5.584;2023-04-09T18:36:14;14.50;99.90
23723;DHT22;12042;52.136;5.584;2023-04-09T18:38:40;14.50;99.90
23723;DHT22;12042;52.136;5.584;2023-04-09T18:41:05;14.40;99.90
23723;DHT22;12042;52.136;5.584;2023-04-09T18:43:32;14.30;99.90
23723;DHT22;12042;52.136;5.584;2023-04-09T18:45:59;14.20;99.90
23723;DHT22;12042;52.136;5.584;2023-04-09T18:48:24;14.10;99.90
23723;DHT22;12042;52.136;5.584;2023-04-09T18:50:50;14.10;99.90
23723;DHT22;12042;52.136;5.584;2023-04-09T18:53:15;14.00;99.90
23723;DHT22;12042;52.136;5.584;2023-04-09T18:55:41;14.00;99.90
23723;DHT22;12042;52.136;5.584;2023-04-09T18:58:07;14.00;99.90
23723;DHT22;12042;52.136;5.584;2023-04-09T19:00:39;13.90;99.90
23723;DHT22;12042;52.136;5.584;2023-04-09T19:03:05;13.80;99.90
23723;DHT22;12042;52.136;5.584;2023-04-09T19:05:31;13.70;99.90
23723;DHT22;12042;52.136;5.584;2023-04-09T19:07:58;13.60;99.90
23723;DHT22;12042;52.136;5.584;2023-04-09T19:10:24;13.60;99.90
23723;DHT22;12042;52.136;5.584;2023-04-09T19:12:51;13.40;99.90
23723;DHT22;12042;52.136;5.584;2023-04-09T19:15:20;13.30;99.90
23723;DHT22;12042;52.136;5.584;2023-04-09T19:17:46;13.20;99.90
23723;DHT22;12042;52.136;5.584;2023-04-09T19:20:13;13.20;99.90
23723;DHT22;12042;52.136;5.584;2023-04-09T19:22:49;13.20;99.90
23723;DHT22;12042;52.136;5.584;2023-04-09T19:25:17;13.30;99.90
23723;DHT22;12042;52.136;5.584;2023-04-09T19:27:44;13.30;99.90
23723;DHT22;12042;52.136;5.584;2023-04-09T19:30:10;13.50;99.90
23723;DHT22;12042;52.136;5.584;2023-04-09T19:32:36;13.70;99.90
23723;DHT22;12042;52.136;5.584;2023-04-09T19:35:02;13.90;99.90
23723;DHT22;12042;52.136;5.584;2023-04-09T19:37:28;14.00;99.90
23723;DHT22;12042;52.136;5.584;2023-04-09T19:39:56;13.70;99.90
23723;DHT22;12042;52.136;5.584;2023-04-09T19:42:22;13.60;99.90
23723;DHT22;12042;52.136;5.584;2023-04-09T19:44:48;13.60;99.90
23723;DHT22;12042;52.136;5.584;2023-04-09T19:47:14;13.40;99.90
23723;DHT22;12042;52.136;5.584;2023-04-09T19:49:43;13.40;99.90
23723;DHT22;12042;52.136;5.584;2023-04-09T19:52:09;13.50;99.90
23723;DHT22;12042;52.136;5.584;2023-04-09T19:54:35;13.70;99.90
23723;DHT22;12042;52.136;5.584;2023-04-09T19:57:02;13.90;99.90
23723;DHT22;12042;52.136;5.584;2023-04-09T19:59:28;13.90;99.90
23723;DHT22;12042;52.136;5.584;2023-04-09T20:01:54;13.70;99.90
23723;DHT22;12042;52.136;5.584;2023-04-09T20:04:19;13.80;99.90
23723;DHT22;12042;52.136;5.584;2023-04-09T20:06:49;13.90;99.90
23723;DHT22;12042;52.136;5.584;2023-04-09T20:09:19;13.90;99.90
23723;DHT22;12042;52.136;5.584;2023-04-09T20:11:49;13.90;99.90
23723;DHT22;12042;52.136;5.584;2023-04-09T20:14:15;13.90;99.90
23723;DHT22;12042;52.136;5.584;2023-04-09T20:16:41;13.90;99.90
23723;DHT22;12042;52.136;5.584;2023-04-09T20:19:07;13.50;99.90
23723;DHT22;12042;52.136;5.584;2023-04-09T20:21:32;13.20;99.90
23723;DHT22;12042;52.136;5.584;2023-04-09T20:23:58;12.90;99.90
23723;DHT22;12042;52.136;5.584;2023-04-09T20:26:24;12.60;99.90
23723;DHT22;12042;52.136;5.584;2023-04-09T20:28:49;12.30;99.90
23723;DHT22;12042;52.136;5.584;2023-04-09T20:31:15;12.20;99.90
23723;DHT22;12042;52.136;5.584;2023-04-09T20:33:41;12.10;99.90
23723;DHT22;12042;52.136;5.584;2023-04-09T20:36:18;12.00;99.90
23723;DHT22;12042;52.136;5.584;2023-04-09T20:38:44;11.90;99.90
23723;DHT22;12042;52.136;5.584;2023-04-09T20:41:10;11.90;99.90
23723;DHT22;12042;52.136;5.584;2023-04-09T20:43:35;11.90;99.90
23723;DHT22;12042;52.136;5.584;2023-04-09T20:46:05;11.80;99.90
23723;DHT22;12042;52.136;5.584;2023-04-09T20:48:31;11.80;99.90
23723;DHT22;12042;52.136;5.584;2023-04-09T20:50:56;11.70;99.90
23723;DHT22;12042;52.136;5.584;2023-04-09T20:53:22;11.50;99.90
23723;DHT22;12042;52.136;5.584;2023-04-09T20:55:58;11.40;99.90
23723;DHT22;12042;52.136;5.584;2023-04-09T20:58:23;11.30;99.90
23723;DHT22;12042;52.136;5.584;2023-04-09T21:00:49;11.20;99.90
23723;DHT22;12042;52.136;5.584;2023-04-09T21:03:15;11.10;99.90
23723;DHT22;12042;52.136;5.584;2023-04-09T21:05:41;11.10;99.90
23723;DHT22;12042;52.136;5.584;2023-04-09T21:08:06;11.00;99.90
23723;DHT22;12042;52.136;5.584;2023-04-09T21:10:32;10.90;99.90
23723;DHT22;12042;52.136;5.584;2023-04-09T21:12:57;10.90;99.90
23723;DHT22;12042;52.136;5.584;2023-04-09T21:15:25;10.80;99.90
23723;DHT22;12042;52.136;5.584;2023-04-09T21:17:50;10.80;99.90
23723;DHT22;12042;52.136;5.584;2023-04-09T21:20:16;10.80;99.90
23723;DHT22;12042;52.136;5.584;2023-04-09T21:22:42;10.70;99.90
23723;DHT22;12042;52.136;5.584;2023-04-09T21:25:07;10.70;99.90